Time;durP1;ratioP1;P1;durP2;ratioP2;P2;SDS_P1;SDS_P2;PMS_P1;PMS_P2;Temp;Humidity;BMP_temperature;BMP_pressure;BME280_temperature;BME280_humidity;BME280_pressure;Samples;Min_cycle;Max_cycle;Signal;HPM_P1;HPM_P2
2021/06/28 00:01:20;;;;;;;1999.90;999.90;;;19.80;99.90;;;;;;5072228;28;20185;-76
2021/06/28 00:03:46;;;;;;;1999.90;999.90;;;19.80;99.90;;;;;;5089531;28;20264;-76
2021/06/28 00:06:15;;;;;;;1999.90;999.90;;;19.90;99.90;;;;;;5059190;28;20190;-76
2021/06/28 00:08:42;;;;;;;1999.90;999.90;;;20.00;99.90;;;;;;5053316;28;20202;-76
2021/06/28 00:11:09;;;;;;;1999.90;999.90;;;19.90;99.90;;;;;;5053140;28;20228;-76
2021/06/28 00:13:40;;;;;;;1999.90;999.90;;;19.90;99.90;;;;;;5045588;28;20201;-76
2021/06/28 00:16:05;;;;;;;1999.90;999.90;;;19.90;99.90;;;;;;5033376;28;20202;-76
2021/06/28 00:18:32;;;;;;;1999.90;999.90;;;19.80;99.90;;;;;;5032094;28;20547;-76
2021/06/28 00:20:58;;;;;;;1999.90;999.90;;;19.80;99.90;;;;;;5032040;28;20185;-76
2021/06/28 00:23:23;;;;;;;1999.90;999.90;;;19.70;99.90;;;;;;5033217;28;20166;-76
2021/06/28 00:25:49;;;;;;;1999.90;999.90;;;19.70;99.90;;;;;;5033187;28;20194;-76
2021/06/28 00:28:15;;;;;;;1999.90;999.90;;;19.70;99.90;;;;;;5033173;28;20194;-76
2021/06/28 00:30:42;;;;;;;1999.90;999.90;;;19.60;99.90;;;;;;5033230;28;20609;-76
2021/06/28 00:33:11;;;;;;;1999.90;999.90;;;19.70;99.90;;;;;;5044077;28;20193;-76
2021/06/28 00:35:37;;;;;;;1999.90;999.90;;;19.70;99.90;;;;;;5053171;28;20595;-76
2021/06/28 00:38:05;;;;;;;1999.90;999.90;;;19.60;99.90;;;;;;5053011;28;20173;-76
2021/06/28 00:40:31;;;;;;;1999.90;999.90;;;19.50;99.90;;;;;;5052856;28;20182;-76
2021/06/28 00:42:57;;;;;;;1999.90;999.90;;;19.30;99.90;;;;;;5053052;28;20185;-76
2021/06/28 00:45:31;;;;;;;1999.90;999.90;;;19.20;99.90;;;;;;5051418;28;20259;-76
2021/06/28 00:47:59;;;;;;;1999.90;999.90;;;19.20;99.90;;;;;;5051490;28;20211;-76
2021/06/28 00:50:28;;;;;;;1999.90;999.90;;;19.20;99.90;;;;;;5052727;28;20196;-76
2021/06/28 00:52:59;;;;;;;1999.90;999.90;;;19.20;99.90;;;;;;5031877;28;20178;-76
2021/06/28 00:55:25;;;;;;;1999.90;999.90;;;19.20;99.90;;;;;;5048289;28;20221;-76
2021/06/28 00:57:52;;;;;;;1999.90;999.90;;;19.30;99.90;;;;;;5053063;28;20178;-76
2021/06/28 01:00:19;;;;;;;1999.90;999.90;;;19.30;99.90;;;;;;5052732;28;20201;-76
2021/06/28 01:02:45;;;;;;;1999.90;999.90;;;19.20;99.90;;;;;;5051492;28;20178;-76
2021/06/28 01:05:14;;;;;;;1999.90;999.90;;;19.10;99.90;;;;;;5052634;28;20197;-74
2021/06/28 01:07:41;;;;;;;1999.90;999.90;;;19.20;99.90;;;;;;5052727;28;20537;-75
2021/06/28 01:10:07;;;;;;;1999.90;999.90;;;19.30;99.90;;;;;;5052745;28;20182;-74
2021/06/28 01:12:33;;;;;;;1999.90;999.90;;;19.30;99.90;;;;;;5051809;28;20174;-74
2021/06/28 01:15:00;;;;;;;1999.90;999.90;;;19.30;99.90;;;;;;5051201;28;20568;-74
2021/06/28 01:17:27;;;;;;;1999.90;999.90;;;19.30;99.90;;;;;;5051364;28;20170;-74
2021/06/28 01:20:01;;;;;;;1999.90;999.90;;;19.40;99.90;;;;;;5051305;28;20235;-74
2021/06/28 01:22:30;;;;;;;1999.90;999.90;;;19.40;99.90;;;;;;5052871;28;20260;-73
2021/06/28 01:24:58;;;;;;;1999.90;999.90;;;19.40;99.90;;;;;;5052361;28;20201;-74
2021/06/28 01:27:25;;;;;;;1999.90;999.90;;;19.30;99.90;;;;;;5052499;28;20193;-74
2021/06/28 01:29:51;;;;;;;1999.90;999.90;;;19.30;99.90;;;;;;5052358;28;20190;-75
2021/06/28 01:32:16;;;;;;;1999.90;999.90;;;19.20;99.90;;;;;;5047583;28;20177;-74
2021/06/28 01:34:42;;;;;;;1999.90;999.90;;;19.20;99.90;;;;;;5053441;28;20212;-75
2021/06/28 01:37:32;;;;;;;1999.90;999.90;;;19.20;99.90;;;;;;5054200;28;20181;-75
2021/06/28 01:40:02;;;;;;;1999.90;999.90;;;19.20;99.90;;;;;;5054863;28;20538;-74
2021/06/28 01:42:29;;;;;;;1999.90;999.90;;;19.10;99.90;;;;;;5056432;28;20186;-74
2021/06/28 01:44:55;;;;;;;1999.90;999.90;;;19.10;99.90;;;;;;5056119;28;20193;-74
2021/06/28 01:47:21;;;;;;;1999.90;999.90;;;19.10;99.90;;;;;;5055185;28;20547;-74
2021/06/28 01:49:47;;;;;;;1999.90;999.90;;;19.10;99.90;;;;;;5055922;28;20263;-74
2021/06/28 01:52:14;;;;;;;1999.90;999.90;;;19.00;99.90;;;;;;5055967;28;20166;-74
2021/06/28 01:54:40;;;;;;;1999.90;999.90;;;19.00;99.90;;;;;;5056180;28;20193;-74
2021/06/28 01:57:07;;;;;;;1999.90;999.90;;;18.90;99.90;;;;;;5055863;28;20315;-74
2021/06/28 01:59:36;;;;;;;1999.90;999.90;;;18.90;99.90;;;;;;5049291;28;20186;-74
2021/06/28 02:02:04;;;;;;;1999.90;999.90;;;18.90;99.90;;;;;;5048542;28;20185;-74
2021/06/28 02:07:00;;;;;;;1999.90;999.90;;;18.80;99.90;;;;;;5128808;22;20243;-74
2021/06/28 02:09:35;;;;;;;1999.90;999.90;;;18.80;99.90;;;;;;5113731;28;20199;-73
2021/06/28 02:12:04;;;;;;;1999.90;999.90;;;18.80;99.90;;;;;;5097922;28;20168;-73
2021/06/28 02:14:30;;;;;;;1999.90;999.90;;;18.80;99.90;;;;;;5115212;28;20172;-73
2021/06/28 02:16:56;;;;;;;1999.90;999.90;;;18.70;99.90;;;;;;5095642;28;20184;-74
2021/06/28 02:19:24;;;;;;;1999.90;999.90;;;18.70;99.90;;;;;;5095638;28;20176;-74
2021/06/28 02:21:51;;;;;;;1999.90;999.90;;;18.70;99.90;;;;;;5095526;28;20181;-75
2021/06/28 02:24:16;;;;;;;1999.90;999.90;;;18.70;99.90;;;;;;5095620;28;20184;-74
2021/06/28 02:26:43;;;;;;;1999.90;999.90;;;18.80;99.90;;;;;;5095512;28;20279;-74
2021/06/28 02:29:09;;;;;;;1999.90;999.90;;;18.80;99.90;;;;;;5095429;28;20200;-74
2021/06/28 02:31:35;;;;;;;1999.90;999.90;;;18.80;99.90;;;;;;5095462;28;20183;-74
2021/06/28 02:34:00;;;;;;;1999.90;999.90;;;18.70;99.90;;;;;;5095259;28;20180;-75
2021/06/28 02:36:27;;;;;;;1999.90;999.90;;;18.80;99.90;;;;;;5095295;28;20204;-74
2021/06/28 02:38:57;;;;;;;1999.90;999.90;;;18.80;99.90;;;;;;5094913;28;20184;-75
2021/06/28 02:41:23;;;;;;;1999.90;999.90;;;18.80;99.90;;;;;;5095283;28;20267;-74
2021/06/28 02:43:51;;;;;;;1999.90;999.90;;;18.70;99.90;;;;;;5075934;28;20185;-74
2021/06/28 02:46:16;;;;;;;1999.90;999.90;;;18.70;99.90;;;;;;5095119;28;20192;-74
2021/06/28 02:48:43;;;;;;;1999.90;999.90;;;18.70;99.90;;;;;;5076883;28;20690;-73
2021/06/28 02:51:11;;;;;;;1999.90;999.90;;;18.60;99.90;;;;;;5095315;28;20188;-73
2021/06/28 02:53:38;;;;;;;1999.90;999.90;;;18.60;99.90;;;;;;5095048;28;20611;-74
2021/06/28 02:56:14;;;;;;;1999.90;999.90;;;18.60;99.90;;;;;;5094820;28;20196;-74
2021/06/28 02:58:40;;;;;;;1999.90;999.90;;;18.50;99.90;;;;;;5095005;28;20183;-74
2021/06/28 03:01:06;;;;;;;1999.90;999.90;;;18.40;99.90;;;;;;5094926;28;20647;-74
2021/06/28 03:03:32;;;;;;;1999.90;999.90;;;18.30;99.90;;;;;;5095161;28;20268;-74
2021/06/28 03:05:58;;;;;;;1999.90;999.90;;;18.30;99.90;;;;;;5094653;28;20597;-74
2021/06/28 03:08:23;;;;;;;1999.90;999.90;;;18.20;99.90;;;;;;5094619;28;20196;-74
2021/06/28 03:10:49;;;;;;;1999.90;999.90;;;18.20;99.90;;;;;;5094912;28;20181;-74
2021/06/28 03:13:15;;;;;;;1999.90;999.90;;;18.20;99.90;;;;;;5094935;28;20173;-74
2021/06/28 03:15:40;;;;;;;1999.90;999.90;;;18.20;99.90;;;;;;5094631;28;20254;-74
2021/06/28 03:18:06;;;;;;;1999.90;999.90;;;18.20;99.90;;;;;;5094553;28;20172;-74
2021/06/28 03:20:32;;;;;;;1999.90;999.90;;;18.10;99.90;;;;;;5094484;28;20198;-74
2021/06/28 03:22:58;;;;;;;1999.90;999.90;;;18.10;99.90;;;;;;5076218;28;20184;-73
2021/06/28 03:25:24;;;;;;;1999.90;999.90;;;18.00;99.90;;;;;;5094499;28;20188;-74
2021/06/28 03:27:50;;;;;;;1999.90;999.90;;;18.00;99.90;;;;;;5094324;28;20201;-74
2021/06/28 03:30:16;;;;;;;1999.90;999.90;;;18.00;99.90;;;;;;5094530;28;20207;-74
2021/06/28 03:32:43;;;;;;;1999.90;999.90;;;17.90;99.90;;;;;;5094279;28;20646;-73
2021/06/28 03:35:10;;;;;;;1999.90;999.90;;;17.90;99.90;;;;;;5075877;28;20195;-74
2021/06/28 03:37:36;;;;;;;1999.90;999.90;;;17.90;99.90;;;;;;5094210;28;20171;-74
2021/06/28 03:40:04;;;;;;;1999.90;999.90;;;17.90;99.90;;;;;;5094436;28;20208;-74
2021/06/28 03:42:29;;;;;;;1999.90;999.90;;;17.90;99.90;;;;;;5093947;28;20223;-74
2021/06/28 03:44:55;;;;;;;1999.90;999.90;;;18.00;99.90;;;;;;5094003;28;20665;-74
2021/06/28 03:47:21;;;;;;;1999.90;999.90;;;18.00;99.90;;;;;;5094291;28;20291;-74
2021/06/28 03:49:46;;;;;;;1999.90;999.90;;;18.00;99.90;;;;;;5094105;28;20203;-74
2021/06/28 03:52:12;;;;;;;1999.90;999.90;;;18.00;99.90;;;;;;5094235;28;20175;-74
2021/06/28 03:54:38;;;;;;;1999.90;999.90;;;18.00;99.90;;;;;;5093458;28;20215;-74
2021/06/28 03:57:04;;;;;;;1999.90;999.90;;;18.00;99.90;;;;;;5094062;28;20181;-72
2021/06/28 03:59:35;;;;;;;1999.90;999.90;;;17.90;99.90;;;;;;5093759;28;20677;-71
2021/06/28 04:02:01;;;;;;;1999.90;999.90;;;17.80;99.90;;;;;;5081810;28;20222;-74
2021/06/28 04:04:35;;;;;;;1999.90;999.90;;;17.80;99.90;;;;;;5087876;28;20179;-74
2021/06/28 04:07:01;;;;;;;1999.90;999.90;;;17.80;99.90;;;;;;5083050;28;20191;-75
2021/06/28 04:09:26;;;;;;;1999.90;999.90;;;17.80;99.90;;;;;;5073914;28;20229;-74
2021/06/28 04:11:52;;;;;;;1999.90;999.90;;;17.90;99.90;;;;;;5092547;28;20168;-74
2021/06/28 04:14:17;;;;;;;1999.90;999.90;;;17.90;99.90;;;;;;5093488;28;20180;-74
2021/06/28 04:16:43;;;;;;;1999.90;999.90;;;17.90;99.90;;;;;;5092559;28;20196;-74
2021/06/28 04:19:09;;;;;;;1999.90;999.90;;;17.90;99.90;;;;;;5074968;28;20184;-73
2021/06/28 04:21:35;;;;;;;1999.90;999.90;;;18.10;99.90;;;;;;5093442;28;20180;-75
2021/06/28 04:24:04;;;;;;;1999.90;999.90;;;18.10;99.90;;;;;;5093586;28;20259;-74
2021/06/28 04:26:30;;;;;;;1999.90;999.90;;;18.10;99.90;;;;;;5075112;28;20203;-74
2021/06/28 04:28:56;;;;;;;1999.90;999.90;;;18.10;99.90;;;;;;5075752;28;20257;-74
2021/06/28 04:31:22;;;;;;;1999.90;999.90;;;18.00;99.90;;;;;;5075525;28;20577;-71
2021/06/28 04:33:48;;;;;;;1999.90;999.90;;;18.00;99.90;;;;;;5093572;28;20251;-72
2021/06/28 04:36:14;;;;;;;1999.90;999.90;;;18.10;99.90;;;;;;5093280;28;20557;-74
2021/06/28 04:38:39;;;;;;;1999.90;999.90;;;18.20;99.90;;;;;;5075117;28;20191;-74
2021/06/28 04:41:05;;;;;;;1999.90;999.90;;;18.20;99.90;;;;;;5074992;28;20181;-73
2021/06/28 04:43:31;;;;;;;1999.90;999.90;;;18.30;99.90;;;;;;5093279;28;20184;-74
2021/06/28 04:45:57;;;;;;;1999.90;999.90;;;18.30;99.90;;;;;;5098030;22;20260;-74
2021/06/28 04:48:22;;;;;;;1999.90;999.90;;;18.30;99.90;;;;;;5071382;28;20279;-74
2021/06/28 04:50:48;;;;;;;1999.90;999.90;;;18.40;99.90;;;;;;5055104;28;20169;-73
2021/06/28 04:53:15;;;;;;;1999.90;999.90;;;18.50;99.90;;;;;;5073121;28;20208;-73
2021/06/28 04:55:40;;;;;;;1999.90;999.90;;;18.60;99.90;;;;;;5072735;28;20189;-74
2021/06/28 04:58:06;;;;;;;1999.90;999.90;;;18.60;99.90;;;;;;5054975;28;20200;-73
2021/06/28 05:00:32;;;;;;;1999.90;999.90;;;18.70;99.90;;;;;;5072834;28;20211;-74
2021/06/28 05:02:58;;;;;;;1999.90;999.90;;;18.70;99.90;;;;;;5054661;28;20169;-74
2021/06/28 05:05:23;;;;;;;1999.90;999.90;;;18.80;99.90;;;;;;5072801;28;20275;-74
2021/06/28 05:07:49;;;;;;;1999.90;999.90;;;18.90;99.90;;;;;;5074880;28;20210;-74
2021/06/28 05:10:16;;;;;;;1999.90;999.90;;;18.90;99.90;;;;;;5076789;28;20215;-74
2021/06/28 05:12:43;;;;;;;1999.90;999.90;;;19.00;99.90;;;;;;5076652;28;20169;-73
2021/06/28 05:15:10;;;;;;;1999.90;999.90;;;19.10;99.90;;;;;;5058738;28;20564;-75
2021/06/28 05:17:36;;;;;;;1999.90;999.90;;;19.10;99.90;;;;;;5076696;28;20181;-75
2021/06/28 05:20:04;;;;;;;1999.90;999.90;;;19.20;99.90;;;;;;5080435;28;20196;-79
2021/06/28 05:22:30;;;;;;;1999.90;999.90;;;19.30;99.90;;;;;;5085013;28;20178;-79
2021/06/28 05:24:56;;;;;;;1999.90;999.90;;;19.30;99.90;;;;;;5082388;28;20197;-78
2021/06/28 05:27:21;;;;;;;1999.90;999.90;;;19.40;99.90;;;;;;5068332;28;20200;-79
2021/06/28 05:29:54;;;;;;;1999.90;999.90;;;19.50;99.90;;;;;;5084140;28;20205;-79
2021/06/28 05:32:20;;;;;;;1999.90;999.90;;;19.60;99.90;;;;;;5085373;28;20177;-79
2021/06/28 05:34:46;;;;;;;1999.90;999.90;;;19.60;99.90;;;;;;5084931;28;20181;-79
2021/06/28 05:37:12;;;;;;;1999.90;999.90;;;19.70;99.90;;;;;;5066872;28;20184;-78
2021/06/28 05:39:37;;;;;;;1999.90;999.90;;;19.70;99.90;;;;;;5084750;28;20173;-80
2021/06/28 05:42:03;;;;;;;1999.90;999.90;;;19.80;99.90;;;;;;5084594;28;20169;-78
2021/06/28 05:44:29;;;;;;;1999.90;999.90;;;19.80;99.90;;;;;;5083565;28;20173;-78
2021/06/28 05:46:54;;;;;;;1999.90;999.90;;;19.80;99.90;;;;;;5084127;28;20213;-78
2021/06/28 05:49:20;;;;;;;1999.90;999.90;;;19.80;99.90;;;;;;5084748;28;20197;-78
2021/06/28 05:51:46;;;;;;;1999.90;999.90;;;19.80;99.90;;;;;;5084430;28;20590;-78
2021/06/28 05:54:11;;;;;;;1999.90;999.90;;;19.90;99.90;;;;;;5067219;28;20207;-79
2021/06/28 05:56:37;;;;;;;1999.90;999.90;;;19.90;99.90;;;;;;5113117;22;20215;-76
2021/06/28 05:59:03;;;;;;;1999.90;999.90;;;19.90;99.90;;;;;;5116684;28;20225;-77
2021/06/28 06:01:28;;;;;;;1999.90;999.90;;;19.90;99.90;;;;;;5116783;28;20202;-77
2021/06/28 06:03:54;;;;;;;1999.90;999.90;;;20.00;99.90;;;;;;5116644;28;20204;-78
2021/06/28 06:06:19;;;;;;;1999.90;999.90;;;20.10;99.90;;;;;;5109629;28;20588;-77
2021/06/28 06:08:45;;;;;;;1999.90;999.90;;;20.20;99.90;;;;;;5077977;28;20192;-77
2021/06/28 06:11:11;;;;;;;1999.90;999.90;;;20.20;99.90;;;;;;5096042;28;20176;-77
2021/06/28 06:13:36;;;;;;;1999.90;999.90;;;20.30;99.90;;;;;;5096326;28;20640;-79
2021/06/28 06:16:02;;;;;;;1999.90;999.90;;;20.40;99.90;;;;;;5077824;28;20193;-77
2021/06/28 06:18:28;;;;;;;1999.90;999.90;;;20.50;99.90;;;;;;5077722;28;20173;-77
2021/06/28 06:20:54;;;;;;;1999.90;999.90;;;20.60;99.90;;;;;;5077812;28;20192;-77
2021/06/28 06:23:19;;;;;;;1999.90;999.90;;;20.60;99.90;;;;;;5095670;28;20192;-77
2021/06/28 06:25:46;;;;;;;1999.90;999.90;;;20.60;99.90;;;;;;5096150;28;20183;-78
2021/06/28 06:28:12;;;;;;;1999.90;999.90;;;20.70;99.90;;;;;;5096051;28;20233;-77
2021/06/28 06:30:38;;;;;;;1999.90;999.90;;;20.80;99.90;;;;;;5096057;28;20164;-78
2021/06/28 06:33:04;;;;;;;1999.90;999.90;;;20.70;99.90;;;;;;5096037;28;20545;-77
2021/06/28 06:35:31;;;;;;;1999.90;999.90;;;20.50;99.90;;;;;;5096212;28;20169;-79
2021/06/28 06:37:57;;;;;;;1999.90;999.90;;;20.40;99.90;;;;;;5077779;28;20169;-77
2021/06/28 06:40:28;;;;;;;1999.90;999.90;;;20.50;99.90;;;;;;5077511;28;20251;-77
2021/06/28 06:42:54;;;;;;;1999.90;999.90;;;20.70;99.90;;;;;;5095858;28;20194;-77
2021/06/28 06:45:21;;;;;;;1999.90;999.90;;;20.90;99.90;;;;;;5078395;28;20176;-77
2021/06/28 06:47:47;;;;;;;1999.90;999.90;;;21.00;99.90;;;;;;5077569;28;20192;-77
2021/06/28 06:50:14;;;;;;;1999.90;999.90;;;21.10;99.90;;;;;;5077732;28;20195;-77
2021/06/28 06:52:40;;;;;;;1999.90;999.90;;;21.20;99.90;;;;;;5095684;28;20589;-77
2021/06/28 06:55:08;;;;;;;1999.90;999.90;;;21.20;99.90;;;;;;5095846;28;20255;-78
2021/06/28 06:57:35;;;;;;;1999.90;999.90;;;21.20;99.90;;;;;;5077429;28;20212;-77
2021/06/28 07:00:03;;;;;;;1999.90;999.90;;;21.20;99.90;;;;;;5095552;28;20172;-78
2021/06/28 07:02:29;;;;;;;1999.90;999.90;;;21.10;99.90;;;;;;5095539;28;20168;-77
2021/06/28 07:04:55;;;;;;;1999.90;999.90;;;21.20;99.90;;;;;;5077393;28;20579;-77
2021/06/28 07:07:20;;;;;;;1999.90;999.90;;;21.40;99.90;;;;;;5077246;28;20283;-77
2021/06/28 07:09:46;;;;;;;1999.90;999.90;;;21.50;99.90;;;;;;5095202;28;20248;-78
2021/06/28 07:12:12;;;;;;;1999.90;999.90;;;21.60;99.90;;;;;;5095526;28;20172;-77
2021/06/28 07:14:38;;;;;;;1999.90;999.90;;;21.70;99.90;;;;;;5095185;28;20176;-77
2021/06/28 07:17:03;;;;;;;1999.90;999.90;;;21.80;99.90;;;;;;5080625;28;20188;-77
2021/06/28 07:19:29;;;;;;;1999.90;999.90;;;22.00;99.90;;;;;;5095078;28;20533;-77
2021/06/28 07:21:56;;;;;;;1999.90;999.90;;;22.10;99.90;;;;;;5062938;28;20177;-78
2021/06/28 07:24:21;;;;;;;1999.90;999.90;;;22.20;99.90;;;;;;5077007;28;20172;-78
2021/06/28 07:26:47;;;;;;;1999.90;999.90;;;22.40;99.90;;;;;;5076729;28;20200;-77
2021/06/28 07:29:13;;;;;;;1999.90;999.90;;;22.60;99.90;;;;;;5094723;28;20207;-77
2021/06/28 07:31:40;;;;;;;1999.90;999.90;;;22.60;99.90;;;;;;5076289;28;20182;-77
2021/06/28 07:34:06;;;;;;;1999.90;999.90;;;22.60;99.90;;;;;;5094964;28;20207;-77
2021/06/28 07:36:32;;;;;;;1999.90;999.90;;;22.70;99.90;;;;;;5095027;28;20267;-78
2021/06/28 07:39:02;;;;;;;1999.90;999.90;;;22.80;99.90;;;;;;5077213;28;20207;-78
2021/06/28 07:41:29;;;;;;;1999.90;999.90;;;22.80;99.90;;;;;;5094939;28;20245;-77
2021/06/28 07:43:54;;;;;;;1999.90;999.90;;;22.90;99.90;;;;;;5076635;28;20168;-77
2021/06/28 07:46:20;;;;;;;1999.90;999.90;;;23.00;99.90;;;;;;5094686;28;20574;-78
2021/06/28 07:48:46;;;;;;;1999.90;999.90;;;23.10;99.90;;;;;;5076447;28;20192;-78
2021/06/28 07:51:11;;;;;;;1999.90;999.90;;;23.10;99.90;;;;;;5094751;28;20165;-77
2021/06/28 07:53:37;;;;;;;1999.90;999.90;;;23.20;99.90;;;;;;5076542;28;20165;-78
2021/06/28 07:56:14;;;;;;;1999.90;999.90;;;23.20;99.90;;;;;;5094610;28;20215;-77
2021/06/28 07:58:42;;;;;;;1999.90;999.90;;;23.30;99.90;;;;;;5095170;28;20161;-78
2021/06/28 08:01:09;;;;;;;1999.90;999.90;;;23.40;99.90;;;;;;5094742;28;20171;-78
2021/06/28 08:03:34;;;;;;;1999.90;999.90;;;23.40;99.90;;;;;;5094235;28;20709;-77
2021/06/28 08:06:00;;;;;;;1999.90;999.90;;;23.50;99.90;;;;;;5095137;28;20204;-78
2021/06/28 08:08:25;;;;;;;1999.90;999.90;;;23.60;99.90;;;;;;5076376;28;20196;-78
2021/06/28 08:10:51;;;;;;;1999.90;999.90;;;23.70;99.90;;;;;;5094270;28;20203;-78
2021/06/28 08:13:17;;;;;;;1999.90;999.90;;;23.80;99.90;;;;;;5094053;28;20597;-77
2021/06/28 08:15:42;;;;;;;1999.90;999.90;;;23.90;99.90;;;;;;5094413;28;20650;-77
2021/06/28 08:18:08;;;;;;;1999.90;999.90;;;24.00;99.90;;;;;;5094590;28;20168;-77
2021/06/28 08:20:37;;;;;;;1999.90;999.90;;;24.00;99.90;;;;;;5075685;28;20626;-77
2021/06/28 08:23:04;;;;;;;1999.90;999.90;;;24.20;99.90;;;;;;5093981;28;20216;-77
2021/06/28 08:25:29;;;;;;;1999.90;999.90;;;24.20;99.90;;;;;;5093386;28;20300;-77
2021/06/28 08:27:55;;;;;;;1999.90;999.90;;;24.20;99.90;;;;;;5093774;28;20659;-77
2021/06/28 08:30:21;;;;;;;1999.90;999.90;;;24.20;99.90;;;;;;5093736;28;20192;-77
2021/06/28 08:32:47;;;;;;;1999.90;999.90;;;24.20;99.90;;;;;;5093665;28;20179;-77
2021/06/28 08:35:13;;;;;;;1999.90;999.90;;;24.30;99.90;;;;;;5075873;28;20247;-77
2021/06/28 08:37:39;;;;;;;1999.90;999.90;;;24.40;99.90;;;;;;5093865;28;20200;-77
2021/06/28 08:40:07;;;;;;;1999.90;999.90;;;24.60;99.90;;;;;;5094222;28;20179;-78
2021/06/28 08:42:33;;;;;;;1999.90;999.90;;;24.70;99.90;;;;;;5093623;28;20168;-78
2021/06/28 08:44:58;;;;;;;1999.90;999.90;;;24.70;99.90;;;;;;5093104;28;20588;-78
2021/06/28 08:47:24;;;;;;;1999.90;999.90;;;24.80;99.90;;;;;;5093746;28;20187;-77
2021/06/28 08:49:50;;;;;;;1999.90;999.90;;;25.00;99.90;;;;;;5093438;28;20663;-77
2021/06/28 08:52:19;;;;;;;1999.90;999.90;;;25.20;99.90;;;;;;5093539;28;20173;-77
2021/06/28 08:54:44;;;;;;;1999.90;999.90;;;25.20;99.90;;;;;;5093514;28;20588;-77
2021/06/28 08:57:10;;;;;;;1999.90;999.90;;;25.40;99.90;;;;;;5093146;28;20308;-78
2021/06/28 08:59:36;;;;;;;1999.90;999.90;;;25.60;99.90;;;;;;5093721;28;20206;-77
2021/06/28 09:02:02;;;;;;;1999.90;999.90;;;25.60;99.90;;;;;;5093561;28;20671;-78
2021/06/28 09:04:28;;;;;;;1999.90;999.90;;;25.60;99.90;;;;;;5093323;28;20171;-77
2021/06/28 09:07:17;;;;;;;1999.90;999.90;;;25.60;99.90;;;;;;5093175;28;20188;-77
2021/06/28 09:09:43;;;;;;;1999.90;999.90;;;25.50;99.90;;;;;;5093565;28;20196;-77
2021/06/28 09:12:15;;;;;;;1999.90;999.90;;;25.40;99.90;;;;;;5093241;28;20620;-77
2021/06/28 09:14:50;;;;;;;1999.90;999.90;;;25.60;99.90;;;;;;5093278;28;20187;-77
2021/06/28 09:17:31;;;;;;;1999.90;999.90;;;25.70;99.90;;;;;;5093532;28;20196;-78
2021/06/28 09:20:29;;;;;;;1999.90;999.90;;;25.80;99.90;;;;;;5068587;28;20184;-78
2021/06/28 09:22:55;;;;;;;1999.90;999.90;;;25.80;99.90;;;;;;5028887;28;20189;-77
2021/06/28 09:25:35;;;;;;;1999.90;999.90;;;26.00;99.90;;;;;;5089146;28;20199;-77
2021/06/28 09:28:01;;;;;;;1999.90;999.90;;;26.10;99.90;;;;;;5075121;28;20180;-78
2021/06/28 09:30:27;;;;;;;1999.90;999.90;;;26.30;99.90;;;;;;5093167;28;20259;-77
2021/06/28 09:32:53;;;;;;;1999.90;999.90;;;26.40;99.90;;;;;;5074873;28;20263;-77
2021/06/28 09:35:36;;;;;;;1999.90;999.90;;;26.40;99.90;;;;;;5093434;28;20257;-77
2021/06/28 09:38:07;;;;;;;1999.90;999.90;;;26.60;99.90;;;;;;5093173;28;20187;-77
2021/06/28 09:40:36;;;;;;;1999.90;999.90;;;26.60;99.90;;;;;;5093246;28;20647;-78
2021/06/28 09:43:20;;;;;;;1999.90;999.90;;;26.70;99.90;;;;;;5093285;28;20175;-78
2021/06/28 09:45:47;;;;;;;1999.90;999.90;;;26.90;99.90;;;;;;5093090;28;20534;-78
2021/06/28 09:48:28;;;;;;;1999.90;999.90;;;26.90;99.90;;;;;;5092886;28;20581;-78
2021/06/28 09:51:16;;;;;;;1999.90;999.90;;;27.00;99.90;;;;;;5093025;28;20168;-77
2021/06/28 09:53:41;;;;;;;1999.90;999.90;;;27.00;99.90;;;;;;5095541;28;20169;-77
2021/06/28 09:56:26;;;;;;;1999.90;999.90;;;27.10;99.90;;;;;;5096480;28;20215;-78
2021/06/28 09:58:52;;;;;;;1999.90;999.90;;;27.10;99.90;;;;;;5078883;28;20172;-77
2021/06/28 10:01:24;;;;;;;1999.90;999.90;;;27.00;99.90;;;;;;5096580;28;20172;-78
2021/06/28 10:03:52;;;;;;;1999.90;999.90;;;27.00;99.90;;;;;;5078563;28;20169;-78
2021/06/28 10:08:51;;;;;;;1999.90;999.90;;;27.20;99.90;;;;;;5096295;28;20196;-78
2021/06/28 10:11:18;;;;;;;1999.90;999.90;;;27.40;99.90;;;;;;5096512;28;20263;-77
2021/06/28 10:13:53;;;;;;;1999.90;999.90;;;27.40;99.90;;;;;;5077931;28;20259;-78
2021/06/28 10:16:21;;;;;;;1999.90;999.90;;;27.60;99.90;;;;;;5078101;28;20562;-78
2021/06/28 10:18:47;;;;;;;1999.90;999.90;;;27.70;99.90;;;;;;5096272;28;20168;-78
2021/06/28 10:21:13;;;;;;;1999.90;999.90;;;27.70;99.90;;;;;;5095928;28;20241;-77
2021/06/28 10:23:39;;;;;;;1999.90;999.90;;;27.80;99.90;;;;;;5096070;28;20173;-76
2021/06/28 10:26:06;;;;;;;1999.90;999.90;;;27.90;99.90;;;;;;5095843;28;20196;-74
2021/06/28 10:28:36;;;;;;;1999.90;999.90;;;28.00;99.90;;;;;;5095601;28;20192;-75
2021/06/28 10:31:07;;;;;;;1999.90;999.90;;;27.90;99.90;;;;;;5095599;28;20259;-75
2021/06/28 10:33:34;;;;;;;1999.90;999.90;;;28.00;99.90;;;;;;5095626;28;20173;-75
2021/06/28 10:36:04;;;;;;;1999.90;999.90;;;28.20;99.90;;;;;;5095455;28;20687;-75
2021/06/28 10:39:09;;;;;;;1999.90;999.90;;;28.20;99.90;;;;;;5095871;28;20172;-75
2021/06/28 10:41:44;;;;;;;1999.90;999.90;;;28.00;99.90;;;;;;4988843;28;20179;-76
2021/06/28 10:44:12;;;;;;;1999.90;999.90;;;28.10;99.90;;;;;;5077785;28;20199;-76
2021/06/28 10:46:39;;;;;;;1999.90;999.90;;;28.20;99.90;;;;;;5096810;28;20200;-75
2021/06/28 10:49:05;;;;;;;1999.90;999.90;;;28.40;99.90;;;;;;5093447;28;20197;-75
2021/06/28 10:51:47;;;;;;;1999.90;999.90;;;28.50;99.90;;;;;;5099972;28;20169;-75
2021/06/28 10:54:18;;;;;;;1999.90;999.90;;;28.60;99.90;;;;;;5099216;28;20224;-76
2021/06/28 10:56:55;;;;;;;1999.90;999.90;;;28.70;99.90;;;;;;5099486;28;20204;-76
2021/06/28 10:59:23;;;;;;;1999.90;999.90;;;28.80;99.90;;;;;;5096197;28;20188;-75
2021/06/28 11:01:56;;;;;;;1999.90;999.90;;;28.90;99.90;;;;;;5100780;28;20550;-75
2021/06/28 11:04:27;;;;;;;1999.90;999.90;;;28.90;99.90;;;;;;5100230;28;20195;-75
2021/06/28 11:06:59;;;;;;;1999.90;999.90;;;28.90;99.90;;;;;;5098758;28;20200;-76
2021/06/28 11:09:36;;;;;;;1999.90;999.90;;;28.80;99.90;;;;;;5098999;28;20337;-75
2021/06/28 11:12:05;;;;;;;1999.90;999.90;;;28.90;99.90;;;;;;5093765;28;20177;-75
2021/06/28 11:14:30;;;;;;;1999.90;999.90;;;28.70;99.90;;;;;;5099346;28;20191;-75
2021/06/28 11:17:09;;;;;;;1999.90;999.90;;;28.60;99.90;;;;;;5097096;28;20196;-73
2021/06/28 11:19:56;;;;;;;1999.90;999.90;;;28.60;99.90;;;;;;5091883;28;20183;-75
2021/06/28 11:22:33;;;;;;;1999.90;999.90;;;28.60;99.90;;;;;;5093389;28;20259;-76
2021/06/28 11:25:08;;;;;;;1999.90;999.90;;;28.60;99.90;;;;;;5068909;28;20188;-77
2021/06/28 11:27:42;;;;;;;1999.90;999.90;;;28.80;99.90;;;;;;5097595;28;20219;-75
2021/06/28 11:30:13;;;;;;;1999.90;999.90;;;29.00;99.90;;;;;;5073472;28;20260;-75
2021/06/28 11:33:00;;;;;;;1999.90;999.90;;;28.90;99.90;;;;;;5091402;28;20724;-75
2021/06/28 11:35:48;;;;;;;1999.90;999.90;;;28.80;99.90;;;;;;5088197;28;20172;-76
2021/06/28 11:38:15;;;;;;;1999.90;999.90;;;29.00;99.90;;;;;;5082512;28;20248;-75
2021/06/28 11:40:42;;;;;;;1999.90;999.90;;;29.10;99.90;;;;;;5094734;28;20176;-76
2021/06/28 11:43:09;;;;;;;1999.90;999.90;;;29.30;99.90;;;;;;5080432;28;20643;-75
2021/06/28 11:45:49;;;;;;;1999.90;999.90;;;29.40;99.90;;;;;;5091866;28;20181;-76
2021/06/28 11:48:39;;;;;;;1999.90;999.90;;;29.60;99.90;;;;;;5092310;28;20168;-75
2021/06/28 11:51:15;;;;;;;1999.90;999.90;;;29.90;99.90;;;;;;5086645;28;20191;-76
2021/06/28 11:53:43;;;;;;;1999.90;999.90;;;29.80;99.90;;;;;;5077044;28;20183;-75
2021/06/28 11:56:18;;;;;;;1999.90;999.90;;;29.80;99.90;;;;;;5089278;28;20699;-75
2021/06/28 11:58:55;;;;;;;1999.90;999.90;;;29.80;99.90;;;;;;5091005;28;20182;-76
2021/06/28 12:01:29;;;;;;;1999.90;999.90;;;29.50;99.90;;;;;;5092741;28;20176;-76
2021/06/28 12:03:55;;;;;;;1999.90;999.90;;;29.40;99.90;;;;;;5090991;28;20184;-76
2021/06/28 12:06:27;;;;;;;1999.90;999.90;;;29.30;99.90;;;;;;5077140;28;20307;-76
2021/06/28 12:09:17;;;;;;;1999.90;999.90;;;29.30;99.90;;;;;;5078107;28;20282;-75